createdAt,value
2024-05-09T00:00:01.417Z,184.00
2024-05-09T00:01:08.288Z,183.67
2024-05-09T00:01:43.938Z,182.67
2024-05-09T00:02:16.967Z,181.67
2024-05-09T00:02:49.109Z,180.33
2024-05-09T00:03:23.225Z,178.67
2024-05-09T00:03:55.466Z,178.00
2024-05-09T00:04:27.501Z,178.00
2024-05-09T00:04:59.540Z,178.00
2024-05-09T00:05:37.455Z,178.00
2024-05-09T00:06:12.589Z,178.00
2024-05-09T00:06:45.915Z,177.00
2024-05-09T00:07:17.695Z,177.00
2024-05-09T00:07:49.555Z,177.00
2024-05-09T00:08:21.674Z,176.33
2024-05-09T00:08:53.446Z,176.67
2024-05-09T00:09:25.634Z,176.00
2024-05-09T00:09:57.468Z,176.00
2024-05-09T00:10:35.816Z,176.00
2024-05-09T00:11:13.405Z,176.00
2024-05-09T00:11:45.423Z,176.00
2024-05-09T00:12:17.461Z,176.00
2024-05-09T00:12:49.798Z,175.33
2024-05-09T00:13:21.635Z,175.00
2024-05-09T00:13:53.729Z,177.33
2024-05-09T00:14:25.801Z,187.33
2024-05-09T00:14:57.947Z,189.00
2024-05-09T00:15:30.375Z,187.67
2024-05-09T00:16:02.209Z,187.00
2024-05-09T00:16:33.991Z,186.00
2024-05-09T00:17:06.820Z,184.67
2024-05-09T00:17:38.966Z,183.00
2024-05-09T00:18:11.192Z,181.33
2024-05-09T00:18:43.394Z,180.67
2024-05-09T00:19:18.073Z,179.33
2024-05-09T00:19:50.109Z,178.33
2024-05-09T00:20:28.125Z,178.00
2024-05-09T00:21:06.644Z,177.67
2024-05-09T00:21:45.958Z,177.00
2024-05-09T00:22:18.736Z,177.00
2024-05-09T00:22:50.597Z,177.00
2024-05-09T00:23:22.506Z,177.00
2024-05-09T00:23:55.746Z,177.00
2024-05-09T00:24:28.628Z,177.00
2024-05-09T00:25:00.416Z,177.00
2024-05-09T00:25:32.221Z,175.67
2024-05-09T00:26:05.474Z,175.00
2024-05-09T00:26:37.422Z,175.00
2024-05-09T00:27:11.249Z,174.33
2024-05-09T00:27:44.819Z,173.33
2024-05-09T00:28:16.642Z,171.67
2024-05-09T00:28:48.485Z,169.67
2024-05-09T00:29:20.778Z,167.33
2024-05-09T00:29:53.257Z,167.00
2024-05-09T00:30:33.401Z,166.00
2024-05-09T00:31:07.795Z,165.00
2024-05-09T00:31:39.986Z,163.67
2024-05-09T00:32:11.923Z,162.33
2024-05-09T00:32:47.757Z,161.67
2024-05-09T00:33:21.517Z,160.67
2024-05-09T00:33:53.528Z,159.33
2024-05-09T00:34:25.420Z,158.33
2024-05-09T00:34:57.332Z,157.67
2024-05-09T00:35:29.203Z,156.67
2024-05-09T00:36:01.055Z,154.00
2024-05-09T00:36:32.864Z,151.00
2024-05-09T00:37:04.651Z,149.33
2024-05-09T00:37:36.986Z,148.00
2024-05-09T00:38:09.630Z,148.00
2024-05-09T00:38:41.475Z,147.67
2024-05-09T00:39:13.587Z,148.00
2024-05-09T00:39:45.448Z,148.00
2024-05-09T00:40:26.515Z,148.00
2024-05-09T00:41:05.380Z,146.67
2024-05-09T00:41:37.389Z,145.33
2024-05-09T00:42:09.292Z,145.00
2024-05-09T00:42:41.180Z,144.33
2024-05-09T00:43:15.016Z,144.33
2024-05-09T00:43:47.359Z,145.00
2024-05-09T00:44:19.220Z,145.33
2024-05-09T00:44:50.994Z,146.00
2024-05-09T00:45:23.017Z,146.00
2024-05-09T00:45:56.906Z,145.67
2024-05-09T00:46:28.949Z,145.00
2024-05-09T00:47:00.787Z,144.67
2024-05-09T00:47:33.382Z,143.67
2024-05-09T00:48:08.530Z,142.33
2024-05-09T00:48:41.829Z,141.00
2024-05-09T00:49:13.918Z,141.67
2024-05-09T00:49:45.847Z,142.00
2024-05-09T00:50:23.023Z,141.33
2024-05-09T00:51:02.408Z,141.00
2024-05-09T00:51:34.719Z,141.00
2024-05-09T00:52:06.732Z,141.00
2024-05-09T00:52:40.058Z,141.00
2024-05-09T00:53:15.753Z,141.00
2024-05-09T00:53:48.285Z,140.33
2024-05-09T00:54:21.074Z,139.00
2024-05-09T00:54:55.662Z,136.00
2024-05-09T00:55:27.709Z,135.00
2024-05-09T00:56:00.431Z,135.00
2024-05-09T00:56:34.562Z,135.33
2024-05-09T00:57:06.648Z,136.00
2024-05-09T00:57:38.790Z,135.33
2024-05-09T00:58:15.418Z,135.33
2024-05-09T00:58:48.689Z,136.00
2024-05-09T00:59:22.792Z,136.00
2024-05-09T00:59:55.745Z,136.00
2024-05-09T01:00:38.221Z,136.00
2024-05-09T01:01:12.326Z,136.00
2024-05-09T01:01:44.966Z,136.00
2024-05-09T01:02:17.995Z,136.67
2024-05-09T01:02:50.165Z,136.00
2024-05-09T01:03:23.017Z,136.67
2024-05-09T01:03:55.132Z,136.00
2024-05-09T01:04:27.360Z,135.33
2024-05-09T01:04:59.499Z,134.00
2024-05-09T01:05:31.424Z,132.00
2024-05-09T01:06:03.389Z,129.67
2024-05-09T01:06:35.619Z,128.00
2024-05-09T01:07:09.898Z,123.33
2024-05-09T01:07:42.471Z,118.00
2024-05-09T01:08:14.369Z,114.67
2024-05-09T01:08:46.617Z,111.33
2024-05-09T01:09:18.432Z,109.67
2024-05-09T01:09:50.236Z,108.67
2024-05-09T01:10:28.287Z,107.67
2024-05-09T01:11:07.110Z,105.67
2024-05-09T01:11:39.932Z,104.00
2024-05-09T01:12:12.608Z,101.00
2024-05-09T01:12:45.584Z,98.67
2024-05-09T01:13:20.791Z,97.00
2024-05-09T01:13:52.659Z,96.33
2024-05-09T01:14:24.752Z,97.00
2024-05-09T01:14:56.681Z,97.33
2024-05-09T01:15:28.915Z,97.00
2024-05-09T01:16:01.847Z,96.33
2024-05-09T01:16:33.765Z,97.67
2024-05-09T01:17:08.602Z,99.00
2024-05-09T01:17:40.954Z,99.67
2024-05-09T01:18:14.016Z,100.67
2024-05-09T01:18:46.179Z,101.67
2024-05-09T01:19:22.684Z,102.00
2024-05-09T01:19:56.436Z,102.33
2024-05-09T01:20:37.509Z,103.00
2024-05-09T01:21:14.403Z,103.00
2024-05-09T01:21:46.256Z,103.00
2024-05-09T01:22:24.941Z,103.00
2024-05-09T01:22:57.325Z,103.00
2024-05-09T01:23:31.923Z,102.00
2024-05-09T01:24:05.016Z,101.33
2024-05-09T01:24:37.126Z,101.67
2024-05-09T01:25:09.159Z,104.00
2024-05-09T01:25:45.979Z,108.00
2024-05-09T01:26:18.451Z,110.00
2024-05-09T01:26:50.664Z,110.00
2024-05-09T01:27:22.976Z,110.00
2024-05-09T01:27:54.714Z,110.00
2024-05-09T01:28:39.122Z,110.00
2024-05-09T01:29:11.046Z,110.33
2024-05-09T01:29:43.003Z,111.00
2024-05-09T01:30:20.813Z,111.00
2024-05-09T01:30:53.123Z,110.33
2024-05-09T01:31:25.784Z,110.00
2024-05-09T01:31:59.312Z,110.00
2024-05-09T01:32:31.635Z,110.00
2024-05-09T01:33:07.632Z,110.00
2024-05-09T01:33:42.491Z,109.00
2024-05-09T01:34:47.517Z,106.33
2024-05-09T01:35:22.424Z,105.33
2024-05-09T01:35:54.289Z,105.00
2024-05-09T01:36:26.526Z,105.00
2024-05-09T01:36:58.254Z,104.00
2024-05-09T01:37:30.426Z,104.00
2024-05-09T01:38:02.678Z,104.00
2024-05-09T01:38:34.768Z,104.00
2024-05-09T01:39:06.545Z,103.00
2024-05-09T01:39:38.532Z,102.00
2024-05-09T01:40:14.993Z,102.00
2024-05-09T01:40:51.923Z,102.00
2024-05-09T01:41:23.855Z,104.33
2024-05-09T01:41:55.867Z,113.67
2024-05-09T01:42:27.789Z,120.67
2024-05-09T01:42:59.930Z,121.67
2024-05-09T01:43:33.382Z,121.00
2024-05-09T01:44:05.213Z,121.00
2024-05-09T01:44:37.742Z,120.00
2024-05-09T01:45:12.435Z,119.00
2024-05-09T01:45:44.213Z,118.67
2024-05-09T01:46:16.112Z,118.00
2024-05-09T01:46:49.070Z,118.00
2024-05-09T01:47:21.506Z,118.00
2024-05-09T01:47:53.834Z,118.00
2024-05-09T01:48:26.591Z,118.67
2024-05-09T01:48:59.487Z,119.00
2024-05-09T01:49:35.759Z,119.67
2024-05-09T01:50:10.710Z,122.00
2024-05-09T01:50:43.464Z,123.33
2024-05-09T01:51:15.618Z,124.00
2024-05-09T01:51:47.462Z,124.33
2024-05-09T01:52:19.266Z,125.00
2024-05-09T01:52:51.729Z,124.00
2024-05-09T01:53:25.071Z,123.67
2024-05-09T01:53:58.055Z,123.00
2024-05-09T01:54:31.345Z,123.00
2024-05-09T01:55:06.398Z,122.00
2024-05-09T01:55:39.064Z,122.00
2024-05-09T01:56:14.473Z,122.00
2024-05-09T01:56:46.346Z,121.33
2024-05-09T01:57:19.904Z,121.00
2024-05-09T01:57:51.640Z,121.00
2024-05-09T01:58:23.487Z,121.00
2024-05-09T01:58:55.332Z,120.33
2024-05-09T01:59:27.384Z,119.33
2024-05-09T02:00:00.798Z,119.33
2024-05-09T02:00:38.585Z,120.67
2024-05-09T02:01:13.450Z,119.67
2024-05-09T02:01:56.404Z,117.33
2024-05-09T02:02:29.629Z,111.00
2024-05-09T02:03:01.755Z,105.67
2024-05-09T02:03:34.610Z,101.00
2024-05-09T02:04:06.879Z,113.00
2024-05-09T02:04:40.349Z,139.67
2024-05-09T02:05:14.152Z,132.67
2024-05-09T02:05:48.671Z,134.67
2024-05-09T02:06:20.518Z,134.00
2024-05-09T02:06:52.968Z,130.67
2024-05-09T02:07:25.524Z,118.67
2024-05-09T02:07:57.430Z,103.67
2024-05-09T02:08:29.775Z,89.00
2024-05-09T02:09:01.534Z,84.67
2024-05-09T02:09:33.373Z,82.33
2024-05-09T02:10:13.805Z,81.00
2024-05-09T02:10:49.356Z,80.00
2024-05-09T02:11:23.870Z,79.00
2024-05-09T02:11:56.293Z,79.33
2024-05-09T02:12:30.138Z,81.00
2024-05-09T02:13:01.907Z,80.33
2024-05-09T02:13:33.733Z,78.00
2024-05-09T02:14:06.925Z,73.00
2024-05-09T02:14:39.716Z,72.00
2024-05-09T02:15:12.037Z,74.00
2024-05-09T02:15:43.932Z,76.00
2024-05-09T02:16:15.697Z,75.00
2024-05-09T02:16:49.932Z,75.33
2024-05-09T02:17:21.797Z,75.67
2024-05-09T02:17:54.334Z,76.00
2024-05-09T02:18:26.374Z,77.00
2024-05-09T02:18:58.398Z,76.67
2024-05-09T02:19:30.547Z,74.67
2024-05-09T02:20:06.035Z,74.67
2024-05-09T02:20:39.711Z,75.00
2024-05-09T02:21:11.603Z,74.67
2024-05-09T02:21:43.433Z,73.00
2024-05-09T02:22:15.263Z,71.67
2024-05-09T02:22:48.040Z,72.33
2024-05-09T02:23:19.853Z,73.00
2024-05-09T02:23:51.641Z,72.33
2024-05-09T02:24:23.836Z,72.00
2024-05-09T02:24:55.644Z,70.67
2024-05-09T02:25:27.813Z,67.67
2024-05-09T02:25:59.631Z,65.00
2024-05-09T02:26:31.502Z,63.33
2024-05-09T02:27:04.512Z,61.67
2024-05-09T02:27:36.259Z,58.00
2024-05-09T02:28:08.067Z,55.33
2024-05-09T02:28:41.336Z,54.33
2024-05-09T02:29:13.476Z,55.33
2024-05-09T02:29:45.459Z,56.67
2024-05-09T02:30:25.894Z,57.67
2024-05-09T02:31:10.734Z,58.00
2024-05-09T02:31:43.975Z,59.00
2024-05-09T02:32:16.765Z,57.67
2024-05-09T02:32:49.409Z,54.00
2024-05-09T02:33:21.762Z,52.33
2024-05-09T02:33:54.226Z,50.33
2024-05-09T02:34:46.894Z,49.67
2024-05-09T02:35:19.025Z,49.67
2024-05-09T02:35:50.825Z,47.00
2024-05-09T02:36:22.956Z,45.67
2024-05-09T02:36:56.625Z,45.00
2024-05-09T02:37:28.777Z,42.00
2024-05-09T02:38:00.762Z,41.00
2024-05-09T02:38:32.817Z,40.33
2024-05-09T02:39:06.771Z,41.33
2024-05-09T02:39:38.540Z,42.67
2024-05-09T02:40:14.705Z,44.00
2024-05-09T02:40:49.882Z,44.33
2024-05-09T02:41:21.695Z,45.00
2024-05-09T02:41:53.570Z,45.67
2024-05-09T02:42:25.355Z,45.67
2024-05-09T02:42:57.352Z,45.00
2024-05-09T02:43:29.168Z,45.00
2024-05-09T02:44:00.985Z,45.00
2024-05-09T02:44:32.793Z,44.33
2024-05-09T02:45:04.946Z,43.33
2024-05-09T02:45:36.798Z,41.33
2024-05-09T02:46:08.596Z,39.67
2024-05-09T02:46:41.387Z,37.33
2024-05-09T02:47:13.280Z,34.00
2024-05-09T02:47:46.559Z,29.33
2024-05-09T02:48:18.611Z,24.33
2024-05-09T02:48:50.570Z,21.00
2024-05-09T02:49:23.725Z,20.33
2024-05-09T02:49:55.656Z,21.00
2024-05-09T02:50:34.475Z,20.33
2024-05-09T02:51:10.642Z,18.67
2024-05-09T02:51:43.536Z,18.00
2024-05-09T02:52:18.489Z,16.67
2024-05-09T02:52:50.556Z,15.67
2024-05-09T02:53:22.789Z,15.00
2024-05-09T02:53:54.703Z,14.00
2024-05-09T02:54:26.833Z,13.00
2024-05-09T02:55:01.393Z,12.33
2024-05-09T02:55:34.361Z,12.00
2024-05-09T02:56:06.585Z,13.00
2024-05-09T02:56:41.193Z,13.00
2024-05-09T02:57:13.011Z,13.00
2024-05-09T02:57:44.769Z,12.67
2024-05-09T02:58:16.873Z,12.00
2024-05-09T02:58:48.952Z,11.67
2024-05-09T02:59:21.468Z,12.00
2024-05-09T02:59:53.475Z,11.33
2024-05-09T03:00:29.976Z,11.00
2024-05-09T03:01:09.717Z,11.00
2024-05-09T03:01:42.355Z,11.00
2024-05-09T03:02:14.420Z,11.00
2024-05-09T03:02:46.331Z,11.00
2024-05-09T03:03:18.479Z,11.00
2024-05-09T03:03:51.641Z,11.00
2024-05-09T03:04:23.874Z,11.00
2024-05-09T03:04:56.081Z,11.00
2024-05-09T03:05:28.226Z,11.00
2024-05-09T03:06:01.394Z,11.00
2024-05-09T03:06:33.491Z,11.67
2024-05-09T03:07:05.758Z,12.00
2024-05-09T03:07:44.000Z,12.00
2024-05-09T03:08:15.854Z,12.00
2024-05-09T03:08:47.740Z,12.00
2024-05-09T03:09:20.514Z,12.00
2024-05-09T03:09:52.500Z,12.00
2024-05-09T03:10:28.552Z,12.00
2024-05-09T03:11:01.243Z,12.00
2024-05-09T03:11:33.161Z,12.00
2024-05-09T03:12:06.217Z,12.00
2024-05-09T03:12:39.284Z,12.00
2024-05-09T03:13:14.563Z,12.00
2024-05-09T03:13:52.972Z,12.00
2024-05-09T03:14:25.228Z,12.00
2024-05-09T03:14:57.074Z,12.33
2024-05-09T03:15:31.616Z,13.00
2024-05-09T03:16:04.214Z,13.33
2024-05-09T03:16:38.720Z,15.00
2024-05-09T03:17:10.703Z,17.33
2024-05-09T03:17:42.628Z,19.33
2024-05-09T03:18:16.237Z,20.67
2024-05-09T03:18:48.636Z,22.00
2024-05-09T03:19:20.773Z,22.67
2024-05-09T03:19:52.682Z,22.67
2024-05-09T03:20:32.261Z,22.00
2024-05-09T03:21:07.514Z,22.00
2024-05-09T03:21:40.734Z,22.00
2024-05-09T03:22:12.513Z,22.00
2024-05-09T03:22:44.334Z,21.33
2024-05-09T03:23:16.459Z,21.00
2024-05-09T03:23:48.754Z,21.00
2024-05-09T03:24:20.648Z,21.00
2024-05-09T03:24:53.081Z,21.00
2024-05-09T03:25:25.166Z,21.00
2024-05-09T03:25:59.691Z,21.00
2024-05-09T03:26:31.693Z,21.00
2024-05-09T03:27:04.235Z,20.67
2024-05-09T03:27:40.237Z,20.00
2024-05-09T03:28:13.697Z,20.00
2024-05-09T03:28:45.828Z,20.00
2024-05-09T03:29:17.791Z,19.00
2024-05-09T03:29:50.203Z,19.00
2024-05-09T03:30:35.690Z,19.00
2024-05-09T03:31:13.054Z,19.00
2024-05-09T03:31:45.244Z,19.00
2024-05-09T03:32:18.617Z,19.00
2024-05-09T03:32:50.523Z,20.00
2024-05-09T03:33:22.914Z,20.00
2024-05-09T03:33:55.132Z,20.00
2024-05-09T03:34:27.001Z,20.00
2024-05-09T03:34:58.996Z,20.00
2024-05-09T03:35:31.097Z,20.00
2024-05-09T03:36:06.800Z,20.00
2024-05-09T03:36:44.476Z,20.33
2024-05-09T03:37:16.197Z,21.00
2024-05-09T03:37:48.256Z,21.67
2024-05-09T03:38:20.055Z,22.67
2024-05-09T03:38:52.650Z,23.00
2024-05-09T03:39:24.449Z,23.33
2024-05-09T03:40:23.358Z,24.00
2024-05-09T03:40:59.225Z,23.00
2024-05-09T03:41:31.119Z,23.00
2024-05-09T03:42:06.152Z,23.00
2024-05-09T03:42:40.550Z,26.33
2024-05-09T03:43:14.254Z,172.00
2024-05-09T03:43:46.315Z,327.00
2024-05-09T03:44:18.181Z,280.33
2024-05-09T03:44:51.418Z,168.00
2024-05-09T03:45:23.226Z,103.67
2024-05-09T03:45:55.244Z,87.67
2024-05-09T03:46:47.789Z,72.33
2024-05-09T03:47:19.730Z,61.67
2024-05-09T03:47:52.870Z,48.33
2024-05-09T03:48:25.161Z,39.00
2024-05-09T03:48:57.382Z,35.67
2024-05-09T03:49:29.245Z,32.00
2024-05-09T03:50:01.989Z,27.00
2024-05-09T03:50:35.966Z,24.67
2024-05-09T03:51:08.785Z,23.33
2024-05-09T03:51:40.746Z,22.00
2024-05-09T03:52:12.770Z,20.00
2024-05-09T03:52:45.672Z,19.00
2024-05-09T03:53:17.722Z,18.33
2024-05-09T03:53:49.726Z,18.00
2024-05-09T03:54:23.590Z,18.00
2024-05-09T03:54:55.555Z,17.00
2024-05-09T03:55:28.201Z,16.00
2024-05-09T03:56:00.110Z,14.67
2024-05-09T03:56:32.265Z,12.67
2024-05-09T03:57:04.250Z,12.00
2024-05-09T03:57:36.880Z,12.00
2024-05-09T03:58:08.758Z,11.00
2024-05-09T03:58:41.039Z,11.00
2024-05-09T03:59:13.067Z,11.33
2024-05-09T03:59:44.965Z,13.00
2024-05-09T04:00:22.558Z,14.00
2024-05-09T04:01:03.733Z,14.33
2024-05-09T04:01:35.636Z,15.00
2024-05-09T04:02:08.080Z,15.33
2024-05-09T04:02:46.361Z,16.00
2024-05-09T04:03:19.327Z,16.00
2024-05-09T04:03:51.546Z,17.00
2024-05-09T04:04:23.776Z,18.33
2024-05-09T04:04:55.748Z,25.00
2024-05-09T04:05:29.520Z,41.00
2024-05-09T04:06:03.502Z,42.33
2024-05-09T04:06:35.332Z,42.00
2024-05-09T04:07:07.330Z,41.33
2024-05-09T04:07:43.909Z,40.33
2024-05-09T04:08:16.143Z,40.00
2024-05-09T04:08:48.022Z,41.00
2024-05-09T04:09:19.797Z,43.67
2024-05-09T04:09:53.160Z,44.00
2024-05-09T04:10:33.334Z,43.67
2024-05-09T04:11:07.068Z,42.67
2024-05-09T04:11:39.342Z,42.00
2024-05-09T04:12:11.279Z,41.67
2024-05-09T04:12:43.413Z,41.00
2024-05-09T04:13:15.167Z,41.00
2024-05-09T04:13:47.710Z,41.00
2024-05-09T04:14:19.590Z,42.00
2024-05-09T04:14:51.394Z,42.67
2024-05-09T04:15:23.274Z,43.00
2024-05-09T04:15:55.101Z,42.33
2024-05-09T04:16:27.229Z,42.00
2024-05-09T04:16:59.671Z,42.00
2024-05-09T04:17:31.636Z,42.00
2024-05-09T04:18:03.745Z,41.33
2024-05-09T04:18:38.264Z,40.67
2024-05-09T04:19:10.437Z,39.33
2024-05-09T04:19:42.292Z,39.00
2024-05-09T04:20:24.282Z,38.33
2024-05-09T04:21:05.770Z,39.00
2024-05-09T04:21:37.977Z,38.33
2024-05-09T04:22:09.967Z,39.00
2024-05-09T04:22:41.778Z,40.33
2024-05-09T04:23:14.579Z,41.67
2024-05-09T04:23:53.185Z,42.00
2024-05-09T04:24:26.235Z,41.67
2024-05-09T04:24:58.007Z,42.67
2024-05-09T04:25:30.997Z,46.00
2024-05-09T04:26:04.404Z,48.00
2024-05-09T04:26:36.288Z,48.00
2024-05-09T04:27:08.432Z,47.00
2024-05-09T04:27:40.230Z,47.00
2024-05-09T04:28:12.722Z,45.67
2024-05-09T04:28:44.666Z,44.33
2024-05-09T04:29:17.611Z,44.00
2024-05-09T04:29:49.924Z,46.67
2024-05-09T04:30:33.632Z,48.67
2024-05-09T04:31:10.147Z,48.00
2024-05-09T04:31:42.097Z,48.00
2024-05-09T04:32:14.168Z,48.00
2024-05-09T04:32:46.289Z,49.33
2024-05-09T04:33:19.497Z,50.00
2024-05-09T04:33:51.710Z,50.67
2024-05-09T04:34:24.341Z,50.00
2024-05-09T04:34:56.208Z,48.33
2024-05-09T04:35:28.544Z,47.00
2024-05-09T04:36:00.983Z,47.00
2024-05-09T04:36:32.860Z,44.67
2024-05-09T04:37:05.957Z,41.33
2024-05-09T04:37:37.770Z,43.33
2024-05-09T04:38:10.195Z,45.67
2024-05-09T04:38:42.054Z,57.67
2024-05-09T04:39:15.867Z,60.33
2024-05-09T04:39:49.092Z,58.33
2024-05-09T04:40:28.321Z,56.67
2024-05-09T04:41:05.681Z,54.33
2024-05-09T04:41:38.496Z,52.00
2024-05-09T04:42:10.307Z,48.67
2024-05-09T04:42:42.079Z,43.00
2024-05-09T04:43:17.672Z,37.33
2024-05-09T04:43:49.826Z,33.33
2024-05-09T04:44:24.845Z,33.00
2024-05-09T04:44:58.717Z,32.33
2024-05-09T04:45:31.958Z,32.00
2024-05-09T04:46:04.436Z,31.33
2024-05-09T04:46:36.228Z,30.33
2024-05-09T04:47:08.128Z,30.67
2024-05-09T04:47:41.448Z,32.00
2024-05-09T04:48:13.932Z,32.00
2024-05-09T04:48:47.719Z,32.33
2024-05-09T04:49:19.808Z,34.67
2024-05-09T04:49:51.968Z,35.00
2024-05-09T04:50:30.423Z,35.00
2024-05-09T04:51:15.028Z,34.00
2024-05-09T04:51:47.152Z,31.67
2024-05-09T04:52:18.941Z,29.00
2024-05-09T04:52:51.527Z,26.67
2024-05-09T04:53:23.499Z,26.00
2024-05-09T04:53:55.334Z,25.33
2024-05-09T04:54:34.147Z,26.00
2024-05-09T04:55:08.261Z,25.33
2024-05-09T04:55:40.686Z,24.67
2024-05-09T04:56:12.691Z,24.00
2024-05-09T04:56:44.556Z,24.00
2024-05-09T04:57:17.031Z,25.00
2024-05-09T04:58:09.291Z,26.00
2024-05-09T04:58:41.230Z,26.00
2024-05-09T04:59:13.323Z,26.33
2024-05-09T04:59:45.932Z,27.33
2024-05-09T05:00:25.722Z,28.67
2024-05-09T05:01:03.952Z,29.67
2024-05-09T05:01:36.279Z,30.00
2024-05-09T05:02:08.214Z,30.00
2024-05-09T05:02:42.321Z,30.00
2024-05-09T05:03:16.220Z,30.00
2024-05-09T05:03:49.067Z,30.00
2024-05-09T05:04:21.235Z,31.00
2024-05-09T05:04:54.793Z,37.33
2024-05-09T05:05:27.185Z,58.00
2024-05-09T05:05:59.021Z,66.33
2024-05-09T05:06:30.826Z,59.00
2024-05-09T05:07:03.087Z,56.00
2024-05-09T05:07:35.043Z,53.33
2024-05-09T05:08:11.289Z,51.67
2024-05-09T05:08:44.317Z,50.33
2024-05-09T05:09:16.212Z,49.67
2024-05-09T05:09:48.997Z,48.67
2024-05-09T05:10:25.541Z,47.33
2024-05-09T05:11:01.470Z,46.00
2024-05-09T05:11:33.399Z,45.33
2024-05-09T05:12:25.479Z,44.33
2024-05-09T05:13:19.000Z,41.00
2024-05-09T05:13:51.541Z,38.33
2024-05-09T05:14:23.687Z,37.00
2024-05-09T05:14:55.962Z,36.00
2024-05-09T05:15:31.962Z,36.00
2024-05-09T05:16:05.156Z,36.00
2024-05-09T05:16:38.472Z,36.00
2024-05-09T05:17:10.633Z,37.33
2024-05-09T05:17:42.973Z,38.67
2024-05-09T05:18:16.811Z,39.00
2024-05-09T05:18:49.097Z,39.00
2024-05-09T05:19:20.988Z,39.00
2024-05-09T05:19:53.631Z,38.67
2024-05-09T05:20:32.587Z,38.00
2024-05-09T05:21:06.166Z,37.00
2024-05-09T05:21:37.922Z,35.67
2024-05-09T05:22:11.007Z,35.00
2024-05-09T05:22:44.750Z,34.67
2024-05-09T05:23:19.159Z,34.00
2024-05-09T05:23:52.190Z,34.00
2024-05-09T05:24:24.341Z,35.33
2024-05-09T05:24:56.403Z,38.33
2024-05-09T05:25:28.376Z,49.33
2024-05-09T05:26:00.429Z,57.00
2024-05-09T05:26:33.026Z,57.67
2024-05-09T05:27:05.120Z,55.00
2024-05-09T05:27:37.644Z,54.00
2024-05-09T05:28:11.045Z,57.00
2024-05-09T05:28:43.096Z,60.67
2024-05-09T05:29:17.168Z,61.67
2024-05-09T05:29:50.392Z,63.00
2024-05-09T05:30:29.300Z,73.33
2024-05-09T05:31:06.146Z,73.00
2024-05-09T05:31:38.704Z,65.67
2024-05-09T05:32:10.675Z,63.67
2024-05-09T05:32:42.890Z,62.67
2024-05-09T05:33:17.057Z,62.00
2024-05-09T05:33:51.270Z,61.00
2024-05-09T05:34:25.188Z,60.67
2024-05-09T05:34:57.332Z,60.00
2024-05-09T05:35:30.011Z,58.67
2024-05-09T05:36:02.309Z,57.33
2024-05-09T05:36:35.439Z,56.67
2024-05-09T05:37:07.214Z,56.67
2024-05-09T05:37:39.282Z,57.67
2024-05-09T05:38:11.363Z,61.00
2024-05-09T05:38:44.811Z,66.67
2024-05-09T05:39:16.672Z,68.33
2024-05-09T05:39:48.711Z,69.00
2024-05-09T05:40:28.342Z,71.00
2024-05-09T05:41:07.374Z,85.67
2024-05-09T05:41:39.119Z,101.00
2024-05-09T05:42:11.174Z,99.00
2024-05-09T05:42:46.442Z,90.33
2024-05-09T05:43:18.376Z,96.67
2024-05-09T05:43:50.887Z,86.33
2024-05-09T05:44:22.827Z,82.33
2024-05-09T05:44:54.682Z,79.33
2024-05-09T05:45:26.703Z,76.67
2024-05-09T05:45:58.692Z,74.67
2024-05-09T05:46:32.361Z,73.00
2024-05-09T05:47:06.658Z,69.00
2024-05-09T05:47:38.717Z,64.33
2024-05-09T05:48:14.878Z,64.00
2024-05-09T05:48:46.835Z,65.00
2024-05-09T05:49:19.638Z,66.00
2024-05-09T05:49:52.127Z,62.67
2024-05-09T05:50:32.447Z,54.67
2024-05-09T05:51:11.088Z,48.33
2024-05-09T05:51:42.923Z,41.33
2024-05-09T05:52:18.450Z,41.33
2024-05-09T05:52:50.831Z,45.67
2024-05-09T05:53:22.642Z,48.33
2024-05-09T05:53:55.539Z,49.00
2024-05-09T05:54:27.530Z,48.33
2024-05-09T05:54:59.877Z,49.33
2024-05-09T05:55:32.954Z,50.00
2024-05-09T05:56:06.231Z,50.00
2024-05-09T05:56:38.597Z,46.33
2024-05-09T05:57:10.566Z,41.33
2024-05-09T05:57:42.757Z,38.67
2024-05-09T05:58:14.992Z,36.67
2024-05-09T05:58:46.981Z,35.67
2024-05-09T05:59:20.083Z,38.67
2024-05-09T05:59:53.743Z,38.00
2024-05-09T06:00:30.114Z,36.33
2024-05-09T06:01:10.053Z,35.67
2024-05-09T06:01:42.268Z,35.67
2024-05-09T06:02:16.744Z,35.67
2024-05-09T06:02:49.209Z,44.33
2024-05-09T06:03:21.335Z,53.67
2024-05-09T06:03:53.372Z,66.67
2024-05-09T06:04:25.909Z,70.67
2024-05-09T06:04:58.247Z,72.33
2024-05-09T06:05:30.934Z,72.33
2024-05-09T06:06:03.288Z,67.33
2024-05-09T06:06:35.368Z,66.33
2024-05-09T06:07:07.616Z,65.33
2024-05-09T06:07:40.021Z,64.67
2024-05-09T06:08:12.184Z,63.00
2024-05-09T06:08:44.479Z,59.00
2024-05-09T06:09:16.683Z,53.00
2024-05-09T06:09:50.512Z,47.33
2024-05-09T06:10:26.325Z,41.67
2024-05-09T06:11:06.699Z,32.67
2024-05-09T06:11:40.092Z,28.33
2024-05-09T06:12:12.849Z,25.33
2024-05-09T06:13:05.487Z,28.00
2024-05-09T06:13:42.050Z,30.67
2024-05-09T06:14:14.569Z,31.00
2024-05-09T06:14:46.430Z,32.00
2024-05-09T06:15:18.514Z,31.33
2024-05-09T06:15:50.302Z,31.67
2024-05-09T06:16:22.162Z,34.33
2024-05-09T06:16:58.301Z,43.67
2024-05-09T06:17:30.528Z,55.67
2024-05-09T06:18:06.908Z,63.33
2024-05-09T06:18:39.006Z,67.33
2024-05-09T06:19:11.052Z,65.67
2024-05-09T06:19:42.962Z,64.67
2024-05-09T06:20:20.832Z,66.33
2024-05-09T06:20:59.394Z,70.00
2024-05-09T06:21:32.761Z,69.00
2024-05-09T06:22:04.544Z,67.67
2024-05-09T06:22:36.587Z,65.33
2024-05-09T06:23:09.396Z,64.33
2024-05-09T06:23:45.930Z,66.00
2024-05-09T06:24:18.158Z,65.33
2024-05-09T06:24:49.901Z,64.33
2024-05-09T06:25:22.244Z,63.00
2024-05-09T06:25:54.109Z,61.33
2024-05-09T06:26:25.968Z,61.00
2024-05-09T06:26:58.422Z,61.00
2024-05-09T06:27:30.453Z,62.00
2024-05-09T06:28:03.197Z,61.67
2024-05-09T06:28:34.988Z,61.00
2024-05-09T06:29:08.778Z,61.33
2024-05-09T06:29:40.660Z,63.67
2024-05-09T06:30:21.211Z,63.67
2024-05-09T06:31:00.576Z,61.00
2024-05-09T06:31:40.750Z,59.00
2024-05-09T06:32:12.968Z,54.67
2024-05-09T06:32:45.430Z,50.33
2024-05-09T06:33:18.479Z,48.67
2024-05-09T06:33:51.133Z,51.00
2024-05-09T06:34:23.369Z,52.67
2024-05-09T06:34:56.679Z,50.67
2024-05-09T06:35:30.159Z,46.33
2024-05-09T06:36:02.443Z,46.00
2024-05-09T06:36:34.872Z,46.33
2024-05-09T06:37:07.067Z,47.33
2024-05-09T06:37:39.093Z,48.67
2024-05-09T06:38:11.996Z,50.67
2024-05-09T06:38:45.670Z,56.33
2024-05-09T06:39:17.778Z,64.00
2024-05-09T06:39:51.060Z,63.00
2024-05-09T06:40:25.944Z,62.00
2024-05-09T06:41:06.746Z,60.33
2024-05-09T06:41:38.583Z,58.00
2024-05-09T06:42:10.519Z,56.33
2024-05-09T06:42:42.347Z,56.00
2024-05-09T06:43:18.528Z,55.00
2024-05-09T06:43:53.976Z,53.00
2024-05-09T06:44:26.049Z,48.00
2024-05-09T06:44:57.866Z,39.33
2024-05-09T06:45:30.197Z,35.00
2024-05-09T06:46:03.597Z,33.33
2024-05-09T06:46:39.081Z,31.67
2024-05-09T06:47:12.485Z,30.00
2024-05-09T06:47:45.452Z,29.67
2024-05-09T06:48:19.288Z,29.33
2024-05-09T06:48:53.570Z,30.67
2024-05-09T06:49:30.101Z,32.00
2024-05-09T06:50:02.640Z,31.00
2024-05-09T06:50:37.813Z,30.67
2024-05-09T06:51:11.676Z,29.33
2024-05-09T06:51:43.645Z,29.33
2024-05-09T06:52:16.386Z,30.00
2024-05-09T06:52:48.255Z,30.00
2024-05-09T06:53:25.153Z,29.00
2024-05-09T06:53:58.461Z,28.67
2024-05-09T06:54:30.310Z,27.33
2024-05-09T06:55:02.259Z,27.00
2024-05-09T06:55:37.787Z,27.67
2024-05-09T06:56:10.242Z,28.00
2024-05-09T06:56:42.197Z,28.00
2024-05-09T06:57:14.207Z,27.33
2024-05-09T06:57:46.264Z,25.33
2024-05-09T06:58:22.354Z,25.00
2024-05-09T06:58:56.422Z,23.67
2024-05-09T06:59:29.871Z,22.67
2024-05-09T07:00:08.201Z,22.00
2024-05-09T07:00:42.535Z,22.00
2024-05-09T07:01:14.510Z,23.00
2024-05-09T07:01:47.111Z,23.33
2024-05-09T07:02:20.333Z,24.33
2024-05-09T07:02:52.406Z,25.67
2024-05-09T07:03:25.166Z,27.00
2024-05-09T07:03:58.105Z,27.33
2024-05-09T07:04:31.253Z,28.00
2024-05-09T07:05:04.489Z,29.00
2024-05-09T07:05:37.167Z,28.67
2024-05-09T07:06:09.185Z,28.00
2024-05-09T07:06:42.351Z,28.00
2024-05-09T07:07:14.400Z,28.00
2024-05-09T07:07:46.315Z,28.00
2024-05-09T07:08:19.095Z,29.00